createdAt,value
2018-02-12T00:01:08.334Z,66.00
2018-02-12T00:03:39.165Z,66.00
2018-02-12T00:06:10.064Z,65.30
2018-02-12T00:08:41.815Z,64.80
2018-02-12T00:11:12.978Z,64.30
2018-02-12T00:13:44.691Z,63.90
2018-02-12T00:16:15.424Z,63.90
2018-02-12T00:18:46.378Z,63.80
2018-02-12T00:21:18.635Z,64.00
2018-02-12T00:23:49.223Z,63.90
2018-02-12T00:26:20.009Z,64.40
2018-02-12T00:28:50.922Z,63.10
2018-02-12T00:31:21.769Z,63.10
2018-02-12T00:33:52.334Z,62.20
2018-02-12T00:36:23.869Z,59.60
2018-02-12T00:38:54.813Z,59.50
2018-02-12T00:41:25.709Z,58.60
2018-02-12T00:43:56.138Z,57.10
2018-02-12T00:46:26.957Z,57.00
2018-02-12T00:48:57.830Z,56.40
2018-02-12T00:51:28.737Z,55.50
2018-02-12T00:53:59.253Z,54.60
2018-02-12T00:56:29.997Z,55.20
2018-02-12T00:59:00.770Z,55.00
2018-02-12T01:01:31.300Z,53.90
2018-02-12T01:04:02.186Z,54.60
2018-02-12T01:06:33.029Z,53.90
2018-02-12T01:09:04.810Z,52.70
2018-02-12T01:11:35.534Z,53.70
2018-02-12T01:14:06.437Z,56.70
2018-02-12T01:16:37.911Z,56.80
2018-02-12T01:19:09.898Z,56.80
2018-02-12T01:21:40.857Z,56.70
2018-02-12T01:24:11.469Z,56.70
2018-02-12T01:26:43.640Z,56.40
2018-02-12T01:29:14.401Z,56.10
2018-02-12T01:31:45.214Z,55.70
2018-02-12T01:34:16.022Z,56.00
2018-02-12T01:36:46.910Z,55.80
2018-02-12T01:39:17.595Z,55.90
2018-02-12T01:41:48.925Z,55.70
2018-02-12T01:44:19.678Z,55.50
2018-02-12T01:46:50.558Z,56.00
2018-02-12T01:49:21.684Z,54.40
2018-02-12T01:51:52.735Z,54.50
2018-02-12T01:54:24.663Z,54.40
2018-02-12T01:56:55.664Z,54.30
2018-02-12T01:59:27.576Z,54.50
2018-02-12T02:01:58.512Z,54.50
2018-02-12T02:04:30.039Z,54.80
2018-02-12T02:07:00.835Z,56.00
2018-02-12T02:09:31.441Z,55.50
2018-02-12T02:12:02.208Z,55.20
2018-02-12T02:14:33.238Z,54.20
2018-02-12T02:17:03.974Z,55.50
2018-02-12T02:19:34.490Z,54.10
2018-02-12T02:22:05.206Z,53.90
2018-02-12T02:24:36.985Z,54.40
2018-02-12T02:27:07.900Z,54.00
2018-02-12T02:29:38.642Z,53.40
2018-02-12T02:32:09.206Z,53.00
2018-02-12T02:34:39.998Z,52.30
2018-02-12T02:37:10.762Z,54.10
2018-02-12T02:39:41.430Z,54.40
2018-02-12T02:42:12.967Z,51.70
2018-02-12T02:44:46.026Z,52.00
2018-02-12T02:47:16.714Z,52.00
2018-02-12T02:49:47.214Z,51.60
2018-02-12T02:52:18.768Z,52.20
2018-02-12T02:54:50.401Z,53.20
2018-02-12T02:57:21.125Z,53.10
2018-02-12T02:59:51.601Z,51.60
2018-02-12T03:02:22.327Z,50.10
2018-02-12T03:04:53.954Z,50.20
2018-02-12T03:07:24.742Z,50.20
2018-02-12T03:09:55.280Z,52.20
2018-02-12T03:12:26.011Z,52.80
2018-02-12T03:14:56.817Z,52.10
2018-02-12T03:17:28.233Z,51.00
2018-02-12T03:19:59.796Z,51.80
2018-02-12T03:22:30.894Z,51.80
2018-02-12T03:25:01.390Z,52.10
2018-02-12T03:27:32.983Z,50.60
2018-02-12T03:30:03.906Z,50.50
2018-02-12T03:32:35.166Z,51.20
2018-02-12T03:35:06.044Z,51.60
2018-02-12T03:37:37.681Z,52.10
2018-02-12T03:40:08.623Z,52.10
2018-02-12T03:42:39.333Z,51.00
2018-02-12T03:45:10.194Z,50.40
2018-02-12T03:47:41.037Z,50.70
2018-02-12T03:50:11.971Z,51.70
2018-02-12T03:52:42.717Z,51.20
2018-02-12T03:55:13.550Z,50.40
2018-02-12T03:57:44.277Z,50.80
2018-02-12T04:00:15.216Z,49.80
2018-02-12T04:02:46.073Z,49.70
2018-02-12T04:05:17.786Z,50.60
2018-02-12T04:07:48.487Z,50.50
2018-02-12T04:10:19.045Z,50.00
2018-02-12T04:12:49.910Z,50.30
2018-02-12T04:15:20.858Z,48.20
2018-02-12T04:17:52.467Z,48.40
2018-02-12T04:20:23.357Z,49.00
2018-02-12T04:22:54.955Z,49.40
2018-02-12T04:25:25.854Z,49.40
2018-02-12T04:27:57.379Z,49.00
2018-02-12T04:30:28.186Z,48.90
2018-02-12T04:32:59.009Z,48.50
2018-02-12T04:35:29.495Z,48.30
2018-02-12T04:38:01.026Z,48.00
2018-02-12T04:40:31.880Z,48.70
2018-02-12T04:43:02.538Z,49.10
2018-02-12T04:45:34.314Z,48.40
2018-02-12T04:48:05.342Z,48.40
2018-02-12T04:50:36.127Z,47.90
2018-02-12T04:53:07.142Z,47.40
2018-02-12T04:55:38.135Z,48.50
2018-02-12T04:58:09.510Z,46.30
2018-02-12T05:00:40.165Z,46.30
2018-02-12T05:03:11.025Z,46.10
2018-02-12T05:05:41.821Z,46.40
2018-02-12T05:08:12.442Z,46.40
2018-02-12T05:10:44.318Z,46.20
2018-02-12T05:13:15.073Z,46.70
2018-02-12T05:15:45.862Z,46.10
2018-02-12T05:18:17.597Z,45.40
2018-02-12T05:20:48.100Z,45.40
2018-02-12T05:23:18.838Z,45.30
2018-02-12T05:25:50.470Z,45.60
2018-02-12T05:28:26.530Z,45.60
2018-02-12T05:30:57.405Z,45.60
2018-02-12T05:33:28.326Z,45.40
2018-02-12T05:35:59.377Z,45.20
2018-02-12T05:38:30.149Z,44.30
2018-02-12T05:41:01.867Z,44.60
2018-02-12T05:43:32.394Z,44.60
2018-02-12T05:46:03.094Z,44.30
2018-02-12T05:48:34.507Z,44.10
2018-02-12T05:51:05.774Z,44.80
2018-02-12T05:53:36.753Z,44.80
2018-02-12T05:56:07.510Z,45.40
2018-02-12T05:58:38.394Z,45.20
2018-02-12T06:01:09.178Z,44.20
2018-02-12T06:03:40.600Z,45.50
2018-02-12T06:06:11.557Z,43.80
2018-02-12T06:08:42.469Z,45.10
2018-02-12T06:11:13.678Z,45.80
2018-02-12T06:13:45.382Z,45.30
2018-02-12T06:16:15.866Z,45.30
2018-02-12T06:18:47.705Z,45.30
2018-02-12T06:21:18.514Z,45.20
2018-02-12T06:23:49.209Z,46.00
2018-02-12T06:26:19.968Z,46.50
2018-02-12T06:28:50.921Z,46.10
2018-02-12T06:31:21.793Z,44.80
2018-02-12T06:33:53.515Z,43.80
2018-02-12T06:36:24.755Z,43.80
2018-02-12T06:38:55.546Z,43.40
2018-02-12T06:41:27.134Z,43.20
2018-02-12T06:43:57.743Z,43.20
2018-02-12T06:46:28.582Z,44.20
2018-02-12T06:49:00.281Z,44.50
2018-02-12T06:51:31.083Z,44.50
2018-02-12T06:54:01.933Z,44.40
2018-02-12T06:56:32.846Z,44.20
2018-02-12T06:59:03.725Z,44.30
2018-02-12T07:01:34.670Z,44.60
2018-02-12T07:04:05.412Z,44.60
2018-02-12T07:06:36.958Z,44.10
2018-02-12T07:09:07.983Z,45.10
2018-02-12T07:11:39.461Z,44.80
2018-02-12T07:14:09.858Z,44.90
2018-02-12T07:16:40.762Z,45.80
2018-02-12T07:19:11.307Z,44.70
2018-02-12T07:21:42.270Z,44.70
2018-02-12T07:24:13.018Z,44.40
2018-02-12T07:26:43.835Z,43.30
2018-02-12T07:29:14.536Z,43.80
2018-02-12T07:31:45.294Z,44.10
2018-02-12T07:34:16.118Z,43.70
2018-02-12T07:36:46.951Z,43.60
2018-02-12T07:39:18.830Z,41.90
2018-02-12T07:41:49.531Z,42.60
2018-02-12T07:44:20.395Z,42.70
2018-02-12T07:46:51.033Z,41.90
2018-02-12T07:49:21.893Z,41.70
2018-02-12T07:51:52.613Z,41.30
2018-02-12T07:54:24.213Z,41.40
2018-02-12T07:56:55.716Z,41.20
2018-02-12T07:59:26.214Z,41.20
2018-02-12T08:01:56.959Z,41.40
2018-02-12T08:04:27.734Z,40.80
2018-02-12T08:06:58.670Z,40.90
2018-02-12T08:09:29.454Z,40.80
2018-02-12T08:12:00.244Z,40.50
2018-02-12T08:14:31.226Z,41.30
2018-02-12T08:17:01.897Z,41.70
2018-02-12T08:19:32.759Z,42.10
2018-02-12T08:22:04.217Z,40.90
2018-02-12T08:24:35.735Z,40.70
2018-02-12T08:27:06.461Z,40.60
2018-02-12T08:29:37.109Z,40.30
2018-02-12T08:32:08.590Z,40.50
2018-02-12T08:34:40.086Z,40.80
2018-02-12T08:37:11.052Z,40.70
2018-02-12T08:39:41.638Z,41.10
2018-02-12T08:42:12.605Z,41.30
2018-02-12T08:44:43.535Z,40.70
2018-02-12T08:47:14.301Z,41.30
2018-02-12T08:49:45.051Z,41.00
2018-02-12T08:52:16.598Z,41.60
2018-02-12T08:54:48.594Z,42.00
2018-02-12T08:57:19.261Z,41.50
2018-02-12T08:59:50.167Z,41.10
2018-02-12T09:02:20.862Z,41.40
2018-02-12T09:04:51.579Z,41.40
2018-02-12T09:07:22.426Z,41.80
2018-02-12T09:09:53.224Z,42.70
2018-02-12T09:12:24.316Z,43.00
2018-02-12T09:14:55.841Z,41.90
2018-02-12T09:17:26.578Z,41.80
2018-02-12T09:19:57.313Z,42.10
2018-02-12T09:22:28.107Z,42.20
2018-02-12T09:24:58.881Z,42.50
2018-02-12T09:27:30.467Z,42.10
2018-02-12T09:30:02.169Z,42.60
2018-02-12T09:32:32.915Z,42.60
2018-02-12T09:35:05.780Z,42.90
2018-02-12T09:37:36.550Z,42.60
2018-02-12T09:40:08.152Z,43.00
2018-02-12T09:42:38.904Z,43.00
2018-02-12T09:45:09.715Z,42.40
2018-02-12T09:47:41.217Z,42.60
2018-02-12T09:50:12.046Z,43.10
2018-02-12T09:52:42.917Z,43.00
2018-02-12T09:55:14.435Z,43.30
2018-02-12T09:57:45.954Z,43.30
2018-02-12T10:00:16.354Z,42.90
2018-02-12T10:02:47.711Z,43.20
2018-02-12T10:05:19.609Z,43.50
2018-02-12T10:07:50.558Z,43.50
2018-02-12T10:10:21.409Z,43.90
2018-02-12T10:12:52.255Z,44.40
2018-02-12T10:15:23.359Z,44.80
2018-02-12T10:17:54.662Z,45.00
2018-02-12T10:20:26.526Z,45.00
2018-02-12T10:22:58.419Z,45.30
2018-02-12T10:25:29.400Z,45.20
2018-02-12T10:28:00.243Z,45.70
2018-02-12T10:30:31.036Z,45.60
2018-02-12T10:33:01.695Z,45.80
2018-02-12T10:35:32.106Z,45.80
2018-02-12T10:38:03.080Z,46.60
2018-02-12T10:40:34.432Z,46.20
2018-02-12T10:43:05.151Z,46.70
2018-02-12T10:45:35.922Z,47.80
2018-02-12T10:48:07.535Z,47.20
2018-02-12T10:50:38.341Z,47.20
2018-02-12T10:53:09.437Z,47.60
2018-02-12T10:55:40.987Z,47.60
2018-02-12T10:58:12.645Z,47.90
2018-02-12T11:00:43.949Z,48.30
2018-02-12T11:03:14.706Z,48.20
2018-02-12T11:05:45.490Z,47.40
2018-02-12T11:08:16.474Z,48.20
2018-02-12T11:10:47.315Z,47.20
2018-02-12T11:13:18.042Z,47.10
2018-02-12T11:15:48.663Z,47.40
2018-02-12T11:18:19.456Z,48.10
2018-02-12T11:20:50.976Z,48.70
2018-02-12T11:23:21.585Z,48.70
2018-02-12T11:25:52.433Z,48.80
2018-02-12T11:28:23.597Z,48.80
2018-02-12T11:30:54.995Z,48.40
2018-02-12T11:33:26.683Z,50.00
2018-02-12T11:35:57.386Z,50.10
2018-02-12T11:38:28.421Z,49.70
2018-02-12T11:40:59.365Z,50.90
2018-02-12T11:43:30.226Z,51.40
2018-02-12T11:46:01.224Z,51.60
2018-02-12T11:48:31.903Z,51.70
2018-02-12T11:51:02.637Z,52.30
2018-02-12T11:53:33.502Z,52.20
2018-02-12T11:56:04.481Z,52.30
2018-02-12T11:58:35.042Z,51.70
2018-02-12T12:01:05.874Z,51.70
2018-02-12T12:03:37.025Z,51.60
2018-02-12T12:06:07.758Z,51.20
2018-02-12T12:08:39.657Z,51.00
2018-02-12T12:11:11.362Z,52.90
2018-02-12T12:13:42.233Z,52.80
2018-02-12T12:16:12.938Z,53.30
2018-02-12T12:18:43.716Z,54.10
2018-02-12T12:21:15.362Z,52.30
2018-02-12T12:23:46.217Z,52.20
2018-02-12T12:26:17.906Z,52.40
2018-02-12T12:28:48.860Z,52.40
2018-02-12T12:31:19.609Z,52.30
2018-02-12T12:33:50.430Z,53.00
2018-02-12T12:36:21.437Z,53.20
2018-02-12T12:38:52.233Z,53.20
2018-02-12T12:41:23.524Z,53.40
2018-02-12T12:43:54.233Z,53.10
2018-02-12T12:46:25.897Z,53.30
2018-02-12T12:48:57.646Z,53.40
2018-02-12T12:51:29.227Z,53.00
2018-02-12T12:54:01.122Z,52.60
2018-02-12T12:56:32.205Z,52.60
2018-02-12T12:59:04.305Z,52.80
2018-02-12T13:01:35.286Z,52.80
2018-02-12T13:04:06.066Z,52.90
2018-02-12T13:06:36.932Z,52.90
2018-02-12T13:09:07.685Z,53.50
2018-02-12T13:11:38.521Z,53.40
2018-02-12T13:14:09.511Z,53.60
2018-02-12T13:16:40.319Z,54.50
2018-02-12T13:19:12.957Z,54.20
2018-02-12T13:21:43.817Z,54.10
2018-02-12T13:24:14.629Z,55.20
2018-02-12T13:26:45.474Z,55.10
2018-02-12T13:29:16.377Z,54.90
2018-02-12T13:31:47.496Z,54.80
2018-02-12T13:34:18.507Z,55.20
2018-02-12T13:36:49.846Z,54.90
2018-02-12T13:39:20.581Z,55.10
2018-02-12T13:41:51.786Z,55.10
2018-02-12T13:44:22.831Z,54.50
2018-02-12T13:46:53.921Z,54.20
2018-02-12T13:49:25.685Z,53.90
2018-02-12T13:51:57.199Z,54.20
2018-02-12T13:54:28.247Z,54.30
2018-02-12T13:56:59.048Z,54.30
2018-02-12T13:59:30.019Z,54.50
2018-02-12T14:02:00.567Z,54.90
2018-02-12T14:04:31.603Z,55.20
2018-02-12T14:07:03.577Z,55.50
2018-02-12T14:09:34.828Z,55.30
2018-02-12T14:12:06.277Z,55.40
2018-02-12T14:14:37.190Z,55.30
2018-02-12T14:17:08.302Z,55.60
2018-02-12T14:19:39.009Z,55.50
2018-02-12T14:22:09.730Z,55.70
2018-02-12T14:24:40.871Z,55.40
2018-02-12T14:27:11.891Z,55.90
2018-02-12T14:29:43.095Z,56.20
2018-02-12T14:32:14.115Z,55.90
2018-02-12T14:34:45.733Z,56.20
2018-02-12T14:37:16.400Z,56.10
2018-02-12T14:39:48.076Z,56.00
2018-02-12T14:42:19.671Z,56.00
2018-02-12T14:44:50.503Z,55.90
2018-02-12T14:47:21.743Z,56.30
2018-02-12T14:49:52.886Z,56.10
2018-02-12T14:52:23.838Z,55.80
2018-02-12T14:54:55.005Z,55.90
2018-02-12T14:57:25.845Z,56.40
2018-02-12T14:59:56.634Z,56.20
2018-02-12T15:02:27.587Z,56.30
2018-02-12T15:04:58.641Z,56.40
2018-02-12T15:07:29.569Z,56.40
2018-02-12T15:10:00.626Z,56.50
2018-02-12T15:12:32.369Z,56.60
2018-02-12T15:15:03.127Z,56.60
2018-02-12T15:17:34.703Z,56.70
2018-02-12T15:20:07.631Z,56.90
2018-02-12T15:22:38.742Z,56.90
2018-02-12T15:25:10.937Z,57.30
2018-02-12T15:27:42.404Z,57.20
2018-02-12T15:30:13.265Z,57.50
2018-02-12T15:32:44.406Z,58.40
2018-02-12T15:35:15.431Z,58.10
2018-02-12T15:37:46.558Z,58.40
2018-02-12T15:40:17.741Z,57.70
2018-02-12T15:42:50.958Z,57.10
2018-02-12T15:45:22.856Z,57.10
2018-02-12T15:47:53.855Z,57.00
2018-02-12T15:50:25.604Z,58.50
2018-02-12T15:52:57.493Z,58.60
2018-02-12T15:55:28.870Z,58.60
2018-02-12T15:57:59.666Z,59.30
2018-02-12T16:00:31.317Z,60.70
2018-02-12T16:03:03.311Z,61.10
2018-02-12T16:05:34.654Z,61.10
2018-02-12T16:08:05.630Z,61.00
2018-02-12T16:10:37.404Z,60.90
2018-02-12T16:13:09.192Z,60.80
2018-02-12T16:15:39.973Z,61.10
2018-02-12T16:18:10.824Z,62.00
2018-02-12T16:20:41.771Z,62.40
2018-02-12T16:23:12.746Z,63.40
2018-02-12T16:25:43.613Z,63.40
2018-02-12T16:28:14.773Z,63.00
2018-02-12T16:30:45.489Z,62.70
2018-02-12T16:33:16.290Z,62.90
2018-02-12T16:35:47.011Z,62.70
2018-02-12T16:38:18.714Z,62.70
2018-02-12T16:40:49.555Z,62.70
2018-02-12T16:43:20.477Z,62.70
2018-02-12T16:45:51.347Z,62.80
2018-02-12T16:48:22.109Z,62.80
2018-02-12T16:50:53.639Z,61.50
2018-02-12T16:53:24.482Z,61.40
2018-02-12T16:55:55.286Z,62.20
2018-02-12T16:58:26.213Z,62.30
2018-02-12T17:00:56.958Z,62.70
2018-02-12T17:03:27.887Z,62.40
2018-02-12T17:05:58.661Z,62.10
2018-02-12T17:08:29.509Z,62.00
2018-02-12T17:11:00.931Z,62.50
2018-02-12T17:13:31.845Z,62.50
2018-02-12T17:16:02.710Z,62.00
2018-02-12T17:18:33.554Z,62.30
2018-02-12T17:21:04.162Z,61.90
2018-02-12T17:23:35.091Z,61.80
2018-02-12T17:26:05.846Z,62.10
2018-02-12T17:28:36.723Z,62.50
2018-02-12T17:31:08.210Z,63.20
2018-02-12T17:33:39.217Z,63.20
2018-02-12T17:36:11.668Z,62.90
2018-02-12T17:38:42.487Z,63.50
2018-02-12T17:41:13.325Z,62.40
2018-02-12T17:43:44.220Z,62.50
2018-02-12T17:46:15.137Z,62.40
2018-02-12T17:48:46.766Z,62.70
2018-02-12T17:51:17.605Z,62.70
2018-02-12T17:53:48.563Z,63.20
2018-02-12T17:56:20.297Z,64.30
2018-02-12T17:58:51.930Z,64.10
2018-02-12T18:01:22.902Z,64.10
2018-02-12T18:03:54.553Z,62.90
2018-02-12T18:06:26.210Z,63.70
2018-02-12T18:08:56.995Z,63.80
2018-02-12T18:11:27.806Z,64.20
2018-02-12T18:13:59.992Z,64.00
2018-02-12T18:16:30.902Z,64.00
2018-02-12T18:19:02.544Z,63.60
2018-02-12T18:21:33.352Z,63.50
2018-02-12T18:24:04.246Z,64.60
2018-02-12T18:26:35.153Z,64.00
2018-02-12T18:29:06.073Z,64.40
2018-02-12T18:31:37.006Z,65.50
2018-02-12T18:34:07.857Z,66.30
2018-02-12T18:36:38.638Z,67.70
2018-02-12T18:39:09.149Z,68.10
2018-02-12T18:41:40.765Z,68.60
2018-02-12T18:44:11.466Z,68.60
2018-02-12T18:46:42.160Z,67.80
2018-02-12T18:49:13.842Z,69.30
2018-02-12T18:51:44.578Z,69.30
2018-02-12T18:54:15.285Z,69.50
2018-02-12T18:56:46.890Z,70.50
2018-02-12T18:59:17.514Z,70.50
2018-02-12T19:01:48.717Z,70.90
2018-02-12T19:04:20.269Z,70.20
2018-02-12T19:06:51.822Z,69.10
2018-02-12T19:09:23.313Z,69.40
2018-02-12T19:11:54.142Z,69.40
2018-02-12T19:14:24.798Z,68.80
2018-02-12T19:16:55.722Z,69.00
2018-02-12T19:19:26.553Z,68.90
2018-02-12T19:21:57.285Z,69.70
2018-02-12T19:24:28.252Z,70.60
2018-02-12T19:26:59.231Z,70.30
2018-02-12T19:29:30.994Z,70.80
2018-02-12T19:32:02.565Z,70.70
2018-02-12T19:34:33.206Z,70.70
2018-02-12T19:37:03.863Z,69.60
2018-02-12T19:39:34.702Z,68.60
2018-02-12T19:42:05.794Z,69.10
2018-02-12T19:44:37.437Z,69.60
2018-02-12T19:47:08.889Z,69.90
2018-02-12T19:49:40.546Z,71.00
2018-02-12T19:52:12.194Z,71.00
2018-02-12T19:54:43.934Z,71.30
2018-02-12T19:57:15.578Z,70.10
2018-02-12T19:59:46.469Z,70.00
2018-02-12T20:02:17.646Z,69.80
2018-02-12T20:04:48.599Z,70.60
2018-02-12T20:07:19.530Z,70.30
2018-02-12T20:09:50.250Z,70.70
2018-02-12T20:12:21.106Z,71.00
2018-02-12T20:14:51.912Z,70.50
2018-02-12T20:17:22.747Z,70.80
2018-02-12T20:19:53.359Z,71.60
2018-02-12T20:22:24.081Z,71.30
2018-02-12T20:24:55.654Z,70.90
2018-02-12T20:27:26.574Z,71.00
2018-02-12T20:29:58.201Z,70.60
2018-02-12T20:32:29.822Z,70.40
2018-02-12T20:35:00.686Z,70.50
2018-02-12T20:37:31.608Z,70.60
2018-02-12T20:40:02.428Z,70.80
2018-02-12T20:42:33.837Z,70.90
2018-02-12T20:45:05.442Z,70.80
2018-02-12T20:47:36.445Z,70.80
2018-02-12T20:50:07.824Z,72.10
2018-02-12T20:52:38.528Z,72.10
2018-02-12T20:55:10.089Z,72.90
2018-02-12T20:57:40.934Z,72.90
2018-02-12T21:00:13.089Z,72.20
2018-02-12T21:02:43.987Z,71.80
2018-02-12T21:05:14.794Z,72.30
2018-02-12T21:07:45.450Z,72.30
2018-02-12T21:10:16.262Z,72.50
2018-02-12T21:12:47.129Z,72.50
2018-02-12T21:15:17.930Z,72.10
2018-02-12T21:17:48.706Z,72.20
2018-02-12T21:20:19.506Z,72.70
2018-02-12T21:22:50.397Z,72.50
2018-02-12T21:25:21.934Z,73.90
2018-02-12T21:27:52.834Z,73.80
2018-02-12T21:30:23.525Z,74.40
2018-02-12T21:32:55.414Z,75.10
2018-02-12T21:35:26.694Z,75.10
2018-02-12T21:37:57.529Z,75.00
2018-02-12T21:40:28.242Z,74.90
2018-02-12T21:42:59.063Z,74.30
2018-02-12T21:45:29.794Z,74.70
2018-02-12T21:48:00.550Z,74.30
2018-02-12T21:50:31.042Z,74.30
2018-02-12T21:53:02.798Z,74.60
2018-02-12T21:55:33.577Z,74.60
2018-02-12T21:58:04.541Z,74.70
2018-02-12T22:00:35.599Z,74.80
2018-02-12T22:03:07.237Z,75.50
2018-02-12T22:05:38.045Z,75.40
2018-02-12T22:08:08.865Z,76.00
2018-02-12T22:10:39.684Z,75.50
2018-02-12T22:13:10.505Z,74.50
2018-02-12T22:15:42.121Z,73.90
2018-02-12T22:18:12.921Z,73.10
2018-02-12T22:20:43.928Z,72.10
2018-02-12T22:23:15.752Z,71.90
2018-02-12T22:25:46.321Z,71.80
2018-02-12T22:28:18.063Z,72.00
2018-02-12T22:30:48.846Z,72.00
2018-02-12T22:33:19.744Z,72.60
2018-02-12T22:35:52.354Z,71.60
2018-02-12T22:38:23.162Z,71.60
2018-02-12T22:40:54.791Z,70.80
2018-02-12T22:43:25.742Z,70.80
2018-02-12T22:45:56.525Z,71.60
2018-02-12T22:48:27.442Z,72.50
2018-02-12T22:50:59.193Z,71.50
2018-02-12T22:53:31.453Z,70.90
2018-02-12T22:56:02.926Z,71.60
2018-02-12T22:58:33.685Z,71.50
2018-02-12T23:01:04.978Z,71.90
2018-02-12T23:03:35.886Z,71.40
2018-02-12T23:06:07.466Z,71.60
2018-02-12T23:08:38.030Z,71.40
2018-02-12T23:11:08.575Z,70.80
2018-02-12T23:13:39.245Z,70.90
2018-02-12T23:16:09.927Z,71.00
2018-02-12T23:18:40.709Z,70.90
2018-02-12T23:21:11.483Z,71.10
2018-02-12T23:23:43.110Z,70.70
2018-02-12T23:26:14.045Z,70.60
2018-02-12T23:28:44.851Z,70.50
2018-02-12T23:31:15.641Z,71.80
2018-02-12T23:33:47.261Z,71.80
2018-02-12T23:36:18.177Z,71.80
2018-02-12T23:38:49.026Z,72.40
2018-02-12T23:41:20.086Z,73.30
2018-02-12T23:43:51.897Z,74.40
2018-02-12T23:46:22.798Z,74.30
2018-02-12T23:48:53.469Z,71.80
2018-02-12T23:51:24.218Z,71.40
2018-02-12T23:53:54.539Z,69.60
2018-02-12T23:56:25.305Z,69.40
2018-02-12T23:58:55.758Z,70.90
